sensor_id;sensor_type;location;lat;lon;timestamp;temperature;humidity
19755;DHT22;10036;47.812;9.274;2022-10-17T00:00:10;11.10;99.90
19755;DHT22;10036;47.812;9.274;2022-10-17T00:02:37;11.20;99.90
19755;DHT22;10036;47.812;9.274;2022-10-17T00:05:04;11.30;99.90
19755;DHT22;10036;47.812;9.274;2022-10-17T00:07:31;11.20;99.90
19755;DHT22;10036;47.812;9.274;2022-10-17T00:09:58;11.10;99.90
19755;DHT22;10036;47.812;9.274;2022-10-17T00:12:26;11.00;99.90
19755;DHT22;10036;47.812;9.274;2022-10-17T00:14:53;10.90;99.90
19755;DHT22;10036;47.812;9.274;2022-10-17T00:17:20;10.80;99.90
19755;DHT22;10036;47.812;9.274;2022-10-17T00:19:47;10.80;99.90
19755;DHT22;10036;47.812;9.274;2022-10-17T00:22:13;10.80;99.90
19755;DHT22;10036;47.812;9.274;2022-10-17T00:24:40;10.80;99.90
19755;DHT22;10036;47.812;9.274;2022-10-17T00:27:07;10.70;99.90
19755;DHT22;10036;47.812;9.274;2022-10-17T00:29:35;10.90;99.90
19755;DHT22;10036;47.812;9.274;2022-10-17T00:32:02;11.10;99.90
19755;DHT22;10036;47.812;9.274;2022-10-17T00:34:29;11.20;99.90
19755;DHT22;10036;47.812;9.274;2022-10-17T00:36:56;11.30;99.90
19755;DHT22;10036;47.812;9.274;2022-10-17T00:39:23;11.30;99.90
19755;DHT22;10036;47.812;9.274;2022-10-17T00:41:50;11.20;99.90
19755;DHT22;10036;47.812;9.274;2022-10-17T00:47:22;11.10;99.90
19755;DHT22;10036;47.812;9.274;2022-10-17T00:49:49;10.90;99.90
19755;DHT22;10036;47.812;9.274;2022-10-17T00:52:18;10.80;99.90
19755;DHT22;10036;47.812;9.274;2022-10-17T00:54:49;10.60;99.90
19755;DHT22;10036;47.812;9.274;2022-10-17T00:57:17;10.80;99.90
19755;DHT22;10036;47.812;9.274;2022-10-17T00:59:47;10.80;99.90
19755;DHT22;10036;47.812;9.274;2022-10-17T01:02:19;10.90;99.90
19755;DHT22;10036;47.812;9.274;2022-10-17T01:04:49;10.80;99.90
19755;DHT22;10036;47.812;9.274;2022-10-17T01:07:17;11.00;99.90
19755;DHT22;10036;47.812;9.274;2022-10-17T01:09:46;10.90;99.90
19755;DHT22;10036;47.812;9.274;2022-10-17T01:12:18;10.80;99.90
19755;DHT22;10036;47.812;9.274;2022-10-17T01:14:54;10.80;99.90
19755;DHT22;10036;47.812;9.274;2022-10-17T01:17:28;10.70;99.90
19755;DHT22;10036;47.812;9.274;2022-10-17T01:23:05;10.60;99.90
19755;DHT22;10036;47.812;9.274;2022-10-17T01:25:41;10.60;99.90
19755;DHT22;10036;47.812;9.274;2022-10-17T01:28:21;10.60;99.90
19755;DHT22;10036;47.812;9.274;2022-10-17T01:31:05;10.40;99.90
19755;DHT22;10036;47.812;9.274;2022-10-17T01:33:45;10.20;99.90
19755;DHT22;10036;47.812;9.274;2022-10-17T01:36:21;10.20;99.90
19755;DHT22;10036;47.812;9.274;2022-10-17T01:38:53;10.20;99.90
19755;DHT22;10036;47.812;9.274;2022-10-17T01:41:26;10.30;99.90
19755;DHT22;10036;47.812;9.274;2022-10-17T01:43:59;10.30;99.90
19755;DHT22;10036;47.812;9.274;2022-10-17T01:46:33;10.20;99.90
19755;DHT22;10036;47.812;9.274;2022-10-17T01:49:03;10.20;99.90
19755;DHT22;10036;47.812;9.274;2022-10-17T01:51:36;10.10;99.90
19755;DHT22;10036;47.812;9.274;2022-10-17T01:54:08;10.10;99.90
19755;DHT22;10036;47.812;9.274;2022-10-17T01:56:38;10.20;99.90
19755;DHT22;10036;47.812;9.274;2022-10-17T01:59:10;10.10;99.90
19755;DHT22;10036;47.812;9.274;2022-10-17T02:01:40;10.10;99.90
19755;DHT22;10036;47.812;9.274;2022-10-17T02:04:08;10.10;99.90
19755;DHT22;10036;47.812;9.274;2022-10-17T02:06:37;10.10;99.90
19755;DHT22;10036;47.812;9.274;2022-10-17T02:09:16;10.10;99.90
19755;DHT22;10036;47.812;9.274;2022-10-17T02:11:54;10.20;99.90
19755;DHT22;10036;47.812;9.274;2022-10-17T02:14:35;10.20;99.90
19755;DHT22;10036;47.812;9.274;2022-10-17T02:17:08;10.20;99.90
19755;DHT22;10036;47.812;9.274;2022-10-17T02:19:49;10.10;99.90
19755;DHT22;10036;47.812;9.274;2022-10-17T02:22:26;10.10;99.90
19755;DHT22;10036;47.812;9.274;2022-10-17T02:25:01;10.10;99.90
19755;DHT22;10036;47.812;9.274;2022-10-17T02:27:37;10.00;99.90
19755;DHT22;10036;47.812;9.274;2022-10-17T02:30:11;9.90;99.90
19755;DHT22;10036;47.812;9.274;2022-10-17T02:32:44;9.90;99.90
19755;DHT22;10036;47.812;9.274;2022-10-17T02:35:15;9.80;99.90
19755;DHT22;10036;47.812;9.274;2022-10-17T02:37:44;9.90;99.90
19755;DHT22;10036;47.812;9.274;2022-10-17T02:40:14;10.20;99.90
19755;DHT22;10036;47.812;9.274;2022-10-17T02:42:44;10.10;99.90
19755;DHT22;10036;47.812;9.274;2022-10-17T02:45:11;9.90;99.90
19755;DHT22;10036;47.812;9.274;2022-10-17T02:47:47;9.90;99.90
19755;DHT22;10036;47.812;9.274;2022-10-17T02:50:17;9.80;99.90
19755;DHT22;10036;47.812;9.274;2022-10-17T02:52:49;9.80;99.90
19755;DHT22;10036;47.812;9.274;2022-10-17T02:55:19;9.80;99.90
19755;DHT22;10036;47.812;9.274;2022-10-17T02:57:52;9.70;99.90
19755;DHT22;10036;47.812;9.274;2022-10-17T03:00:22;9.80;99.90
19755;DHT22;10036;47.812;9.274;2022-10-17T03:02:52;9.70;99.90
19755;DHT22;10036;47.812;9.274;2022-10-17T03:05:21;9.70;99.90
19755;DHT22;10036;47.812;9.274;2022-10-17T03:07:49;9.70;99.90
19755;DHT22;10036;47.812;9.274;2022-10-17T03:10:16;9.60;99.90
19755;DHT22;10036;47.812;9.274;2022-10-17T03:12:42;9.60;99.90
19755;DHT22;10036;47.812;9.274;2022-10-17T03:15:10;9.50;99.90
19755;DHT22;10036;47.812;9.274;2022-10-17T03:17:37;9.50;99.90
19755;DHT22;10036;47.812;9.274;2022-10-17T03:20:06;9.50;99.90
19755;DHT22;10036;47.812;9.274;2022-10-17T03:22:33;9.50;99.90
19755;DHT22;10036;47.812;9.274;2022-10-17T03:25:00;9.50;99.90
19755;DHT22;10036;47.812;9.274;2022-10-17T03:27:27;9.50;99.90
19755;DHT22;10036;47.812;9.274;2022-10-17T03:29:54;9.70;99.90
19755;DHT22;10036;47.812;9.274;2022-10-17T03:32:20;9.90;99.90
19755;DHT22;10036;47.812;9.274;2022-10-17T03:34:47;9.90;99.90
19755;DHT22;10036;47.812;9.274;2022-10-17T03:37:15;9.90;99.90
19755;DHT22;10036;47.812;9.274;2022-10-17T03:39:42;9.70;99.90
19755;DHT22;10036;47.812;9.274;2022-10-17T03:42:09;9.60;99.90
19755;DHT22;10036;47.812;9.274;2022-10-17T03:44:36;9.80;99.90
19755;DHT22;10036;47.812;9.274;2022-10-17T03:47:03;9.90;99.90
19755;DHT22;10036;47.812;9.274;2022-10-17T03:49:29;9.80;99.90
19755;DHT22;10036;47.812;9.274;2022-10-17T03:51:56;9.70;99.90
19755;DHT22;10036;47.812;9.274;2022-10-17T03:54:24;9.60;99.90
19755;DHT22;10036;47.812;9.274;2022-10-17T03:56:51;9.50;99.90
19755;DHT22;10036;47.812;9.274;2022-10-17T03:59:18;9.50;99.90
19755;DHT22;10036;47.812;9.274;2022-10-17T04:01:45;9.40;99.90
19755;DHT22;10036;47.812;9.274;2022-10-17T04:04:12;9.50;99.90
19755;DHT22;10036;47.812;9.274;2022-10-17T04:06:39;9.50;99.90
19755;DHT22;10036;47.812;9.274;2022-10-17T04:09:06;9.40;99.90
19755;DHT22;10036;47.812;9.274;2022-10-17T04:11:34;9.50;99.90
19755;DHT22;10036;47.812;9.274;2022-10-17T04:14:01;9.50;99.90
19755;DHT22;10036;47.812;9.274;2022-10-17T04:16:28;9.50;99.90
19755;DHT22;10036;47.812;9.274;2022-10-17T04:18:56;9.60;99.90
19755;DHT22;10036;47.812;9.274;2022-10-17T04:21:24;9.70;99.90
19755;DHT22;10036;47.812;9.274;2022-10-17T04:23:52;9.90;99.90
19755;DHT22;10036;47.812;9.274;2022-10-17T04:26:20;10.00;99.90
19755;DHT22;10036;47.812;9.274;2022-10-17T04:28:48;9.90;99.90
19755;DHT22;10036;47.812;9.274;2022-10-17T04:31:15;9.90;99.90
19755;DHT22;10036;47.812;9.274;2022-10-17T04:33:45;9.70;99.90
19755;DHT22;10036;47.812;9.274;2022-10-17T04:36:14;9.60;99.90
19755;DHT22;10036;47.812;9.274;2022-10-17T04:38:41;9.80;99.90
19755;DHT22;10036;47.812;9.274;2022-10-17T04:41:11;9.70;99.90
19755;DHT22;10036;47.812;9.274;2022-10-17T04:43:38;9.70;99.90
19755;DHT22;10036;47.812;9.274;2022-10-17T04:46:09;9.60;99.90
19755;DHT22;10036;47.812;9.274;2022-10-17T04:48:36;9.50;99.90
19755;DHT22;10036;47.812;9.274;2022-10-17T04:51:06;9.40;99.90
19755;DHT22;10036;47.812;9.274;2022-10-17T04:53:34;9.40;99.90
19755;DHT22;10036;47.812;9.274;2022-10-17T04:56:07;9.40;99.90
19755;DHT22;10036;47.812;9.274;2022-10-17T04:58:34;9.60;99.90
19755;DHT22;10036;47.812;9.274;2022-10-17T05:01:04;9.60;99.90
19755;DHT22;10036;47.812;9.274;2022-10-17T05:03:33;9.70;99.90
19755;DHT22;10036;47.812;9.274;2022-10-17T05:06:03;9.80;99.90
19755;DHT22;10036;47.812;9.274;2022-10-17T05:08:30;9.90;99.90
19755;DHT22;10036;47.812;9.274;2022-10-17T05:10:57;9.90;99.90
19755;DHT22;10036;47.812;9.274;2022-10-17T05:13:24;9.90;99.90
19755;DHT22;10036;47.812;9.274;2022-10-17T05:15:51;9.90;99.90
19755;DHT22;10036;47.812;9.274;2022-10-17T05:18:17;9.70;99.90
19755;DHT22;10036;47.812;9.274;2022-10-17T05:20:46;9.60;99.90
19755;DHT22;10036;47.812;9.274;2022-10-17T05:23:12;9.50;99.90
19755;DHT22;10036;47.812;9.274;2022-10-17T05:25:39;9.40;99.90
19755;DHT22;10036;47.812;9.274;2022-10-17T05:28:06;9.30;99.90
19755;DHT22;10036;47.812;9.274;2022-10-17T05:30:34;9.50;99.90
19755;DHT22;10036;47.812;9.274;2022-10-17T05:33:01;9.60;99.90
19755;DHT22;10036;47.812;9.274;2022-10-17T05:35:28;9.60;99.90
19755;DHT22;10036;47.812;9.274;2022-10-17T05:37:57;9.50;99.90
19755;DHT22;10036;47.812;9.274;2022-10-17T05:40:24;9.60;99.90
19755;DHT22;10036;47.812;9.274;2022-10-17T05:42:51;9.60;99.90
19755;DHT22;10036;47.812;9.274;2022-10-17T05:45:18;9.50;99.90
19755;DHT22;10036;47.812;9.274;2022-10-17T05:47:45;9.50;99.90
19755;DHT22;10036;47.812;9.274;2022-10-17T05:50:12;9.40;99.90
19755;DHT22;10036;47.812;9.274;2022-10-17T05:52:39;9.30;99.90
19755;DHT22;10036;47.812;9.274;2022-10-17T05:55:08;9.20;99.90
19755;DHT22;10036;47.812;9.274;2022-10-17T05:57:35;9.10;99.90
19755;DHT22;10036;47.812;9.274;2022-10-17T06:00:02;9.10;99.90
19755;DHT22;10036;47.812;9.274;2022-10-17T06:02:29;9.10;99.90
19755;DHT22;10036;47.812;9.274;2022-10-17T06:04:56;9.10;99.90
19755;DHT22;10036;47.812;9.274;2022-10-17T06:07:23;9.10;99.90
19755;DHT22;10036;47.812;9.274;2022-10-17T06:09:50;9.20;99.90
19755;DHT22;10036;47.812;9.274;2022-10-17T06:12:18;9.20;99.90
19755;DHT22;10036;47.812;9.274;2022-10-17T06:14:45;9.40;99.90
19755;DHT22;10036;47.812;9.274;2022-10-17T06:17:12;9.50;99.90
19755;DHT22;10036;47.812;9.274;2022-10-17T06:19:39;9.70;99.90
19755;DHT22;10036;47.812;9.274;2022-10-17T06:22:06;9.70;99.90
19755;DHT22;10036;47.812;9.274;2022-10-17T06:24:33;9.50;99.90
19755;DHT22;10036;47.812;9.274;2022-10-17T06:27:00;9.60;99.90
19755;DHT22;10036;47.812;9.274;2022-10-17T06:29:28;9.70;99.90
19755;DHT22;10036;47.812;9.274;2022-10-17T06:31:55;9.60;99.90
19755;DHT22;10036;47.812;9.274;2022-10-17T06:34:22;9.70;99.90
19755;DHT22;10036;47.812;9.274;2022-10-17T06:36:49;9.70;99.90
19755;DHT22;10036;47.812;9.274;2022-10-17T06:39:16;9.70;99.90
19755;DHT22;10036;47.812;9.274;2022-10-17T06:41:43;9.80;99.90
19755;DHT22;10036;47.812;9.274;2022-10-17T06:44:10;9.80;99.90
19755;DHT22;10036;47.812;9.274;2022-10-17T06:46:39;9.90;99.90
19755;DHT22;10036;47.812;9.274;2022-10-17T06:49:06;10.00;99.90
19755;DHT22;10036;47.812;9.274;2022-10-17T06:51:34;10.00;99.90
19755;DHT22;10036;47.812;9.274;2022-10-17T06:54:02;10.10;99.90
19755;DHT22;10036;47.812;9.274;2022-10-17T06:56:29;10.10;99.90
19755;DHT22;10036;47.812;9.274;2022-10-17T06:58:56;10.10;99.90
19755;DHT22;10036;47.812;9.274;2022-10-17T07:01:23;10.20;99.90
19755;DHT22;10036;47.812;9.274;2022-10-17T07:03:52;10.20;99.90
19755;DHT22;10036;47.812;9.274;2022-10-17T07:06:19;10.20;99.90
19755;DHT22;10036;47.812;9.274;2022-10-17T07:08:48;10.30;99.90
19755;DHT22;10036;47.812;9.274;2022-10-17T07:11:17;10.30;99.90
19755;DHT22;10036;47.812;9.274;2022-10-17T07:13:45;10.40;99.90
19755;DHT22;10036;47.812;9.274;2022-10-17T07:16:13;10.40;99.90
19755;DHT22;10036;47.812;9.274;2022-10-17T07:18:40;10.50;99.90
19755;DHT22;10036;47.812;9.274;2022-10-17T07:21:09;10.50;99.90
19755;DHT22;10036;47.812;9.274;2022-10-17T07:23:36;10.50;99.90
19755;DHT22;10036;47.812;9.274;2022-10-17T07:26:08;10.50;99.90
19755;DHT22;10036;47.812;9.274;2022-10-17T07:28:37;10.60;99.90
19755;DHT22;10036;47.812;9.274;2022-10-17T07:31:05;10.70;99.90
19755;DHT22;10036;47.812;9.274;2022-10-17T07:33:32;10.80;99.90
19755;DHT22;10036;47.812;9.274;2022-10-17T07:36:00;10.90;99.90
19755;DHT22;10036;47.812;9.274;2022-10-17T07:38:28;11.00;99.90
19755;DHT22;10036;47.812;9.274;2022-10-17T07:40:56;11.10;99.90
19755;DHT22;10036;47.812;9.274;2022-10-17T07:43:24;11.20;99.90
19755;DHT22;10036;47.812;9.274;2022-10-17T07:45:51;11.30;99.90
19755;DHT22;10036;47.812;9.274;2022-10-17T07:48:19;11.40;99.90
19755;DHT22;10036;47.812;9.274;2022-10-17T07:50:47;11.40;99.90
19755;DHT22;10036;47.812;9.274;2022-10-17T07:53:14;11.50;99.90
19755;DHT22;10036;47.812;9.274;2022-10-17T07:55:42;11.60;99.90
19755;DHT22;10036;47.812;9.274;2022-10-17T07:58:11;11.70;99.90
19755;DHT22;10036;47.812;9.274;2022-10-17T08:00:38;11.80;99.90
19755;DHT22;10036;47.812;9.274;2022-10-17T08:03:05;12.00;99.90
19755;DHT22;10036;47.812;9.274;2022-10-17T08:05:33;12.00;99.90
19755;DHT22;10036;47.812;9.274;2022-10-17T08:08:00;12.10;99.90
19755;DHT22;10036;47.812;9.274;2022-10-17T08:10:27;12.20;99.90
19755;DHT22;10036;47.812;9.274;2022-10-17T08:12:56;12.30;99.90
19755;DHT22;10036;47.812;9.274;2022-10-17T08:15:24;12.40;99.90
19755;DHT22;10036;47.812;9.274;2022-10-17T08:17:51;12.50;99.90
19755;DHT22;10036;47.812;9.274;2022-10-17T08:20:20;12.60;99.90
19755;DHT22;10036;47.812;9.274;2022-10-17T08:22:51;12.80;99.90
19755;DHT22;10036;47.812;9.274;2022-10-17T08:25:18;12.90;99.90
19755;DHT22;10036;47.812;9.274;2022-10-17T08:27:45;12.90;99.90
19755;DHT22;10036;47.812;9.274;2022-10-17T08:30:13;13.10;99.90
19755;DHT22;10036;47.812;9.274;2022-10-17T08:32:40;13.20;99.90
19755;DHT22;10036;47.812;9.274;2022-10-17T08:35:08;13.20;99.90
19755;DHT22;10036;47.812;9.274;2022-10-17T08:37:35;13.30;99.90
19755;DHT22;10036;47.812;9.274;2022-10-17T08:40:02;13.40;99.90
19755;DHT22;10036;47.812;9.274;2022-10-17T08:42:41;13.50;99.90
19755;DHT22;10036;47.812;9.274;2022-10-17T08:45:17;13.60;99.90
19755;DHT22;10036;47.812;9.274;2022-10-17T08:47:48;13.70;99.90
19755;DHT22;10036;47.812;9.274;2022-10-17T08:50:26;13.80;99.90
19755;DHT22;10036;47.812;9.274;2022-10-17T08:52:59;13.80;99.90
19755;DHT22;10036;47.812;9.274;2022-10-17T08:55:30;14.00;99.90
19755;DHT22;10036;47.812;9.274;2022-10-17T08:57:57;14.10;99.90
19755;DHT22;10036;47.812;9.274;2022-10-17T09:00:27;14.20;99.90
19755;DHT22;10036;47.812;9.274;2022-10-17T09:03:08;14.30;99.90
19755;DHT22;10036;47.812;9.274;2022-10-17T09:05:44;14.40;99.90
19755;DHT22;10036;47.812;9.274;2022-10-17T09:08:23;14.50;99.90
19755;DHT22;10036;47.812;9.274;2022-10-17T09:10:56;14.60;99.90
19755;DHT22;10036;47.812;9.274;2022-10-17T09:13:32;14.70;99.90
19755;DHT22;10036;47.812;9.274;2022-10-17T09:16:18;14.80;99.90
19755;DHT22;10036;47.812;9.274;2022-10-17T09:18:57;14.90;99.90
19755;DHT22;10036;47.812;9.274;2022-10-17T09:21:33;15.10;99.90
19755;DHT22;10036;47.812;9.274;2022-10-17T09:24:05;15.20;99.90
19755;DHT22;10036;47.812;9.274;2022-10-17T09:26:34;15.30;99.90
19755;DHT22;10036;47.812;9.274;2022-10-17T09:29:04;15.40;99.90
19755;DHT22;10036;47.812;9.274;2022-10-17T09:31:42;15.50;99.90
19755;DHT22;10036;47.812;9.274;2022-10-17T09:34:10;15.60;99.90
19755;DHT22;10036;47.812;9.274;2022-10-17T09:36:38;15.70;99.90
19755;DHT22;10036;47.812;9.274;2022-10-17T09:39:11;15.70;99.90
19755;DHT22;10036;47.812;9.274;2022-10-17T09:41:40;15.90;99.90
19755;DHT22;10036;47.812;9.274;2022-10-17T09:44:13;16.00;99.90
19755;DHT22;10036;47.812;9.274;2022-10-17T09:46:47;16.00;99.90
19755;DHT22;10036;47.812;9.274;2022-10-17T09:49:18;16.20;99.90
19755;DHT22;10036;47.812;9.274;2022-10-17T09:51:47;16.20;99.90
19755;DHT22;10036;47.812;9.274;2022-10-17T09:54:20;16.20;99.90
19755;DHT22;10036;47.812;9.274;2022-10-17T09:56:59;16.30;99.90
19755;DHT22;10036;47.812;9.274;2022-10-17T09:59:32;16.50;99.90
19755;DHT22;10036;47.812;9.274;2022-10-17T10:02:16;16.50;99.90
19755;DHT22;10036;47.812;9.274;2022-10-17T10:04:57;16.70;99.90
19755;DHT22;10036;47.812;9.274;2022-10-17T10:07:26;16.70;99.90
19755;DHT22;10036;47.812;9.274;2022-10-17T10:09:53;16.80;99.90
19755;DHT22;10036;47.812;9.274;2022-10-17T10:12:22;16.80;99.90
19755;DHT22;10036;47.812;9.274;2022-10-17T10:14:50;17.00;99.90
19755;DHT22;10036;47.812;9.274;2022-10-17T10:17:37;17.10;99.90
19755;DHT22;10036;47.812;9.274;2022-10-17T10:20:25;17.20;99.90
19755;DHT22;10036;47.812;9.274;2022-10-17T10:23:12;17.20;99.90
19755;DHT22;10036;47.812;9.274;2022-10-17T10:25:54;17.20;99.90
19755;DHT22;10036;47.812;9.274;2022-10-17T10:28:25;17.30;99.90
19755;DHT22;10036;47.812;9.274;2022-10-17T10:30:53;17.40;99.90
19755;DHT22;10036;47.812;9.274;2022-10-17T10:33:25;17.50;99.90
19755;DHT22;10036;47.812;9.274;2022-10-17T10:35:56;17.50;99.90
19755;DHT22;10036;47.812;9.274;2022-10-17T10:38:23;17.60;99.90
19755;DHT22;10036;47.812;9.274;2022-10-17T10:40:52;17.70;99.90
19755;DHT22;10036;47.812;9.274;2022-10-17T10:43:24;17.80;99.90
19755;DHT22;10036;47.812;9.274;2022-10-17T10:45:52;17.80;99.90
19755;DHT22;10036;47.812;9.274;2022-10-17T10:48:23;17.80;99.90
19755;DHT22;10036;47.812;9.274;2022-10-17T10:50:52;17.90;99.90
19755;DHT22;10036;47.812;9.274;2022-10-17T10:53:37;18.00;99.90
19755;DHT22;10036;47.812;9.274;2022-10-17T10:56:11;18.00;99.90
19755;DHT22;10036;47.812;9.274;2022-10-17T10:58:49;18.10;99.90
19755;DHT22;10036;47.812;9.274;2022-10-17T11:01:24;18.20;99.90
19755;DHT22;10036;47.812;9.274;2022-10-17T11:04:05;18.20;99.90
19755;DHT22;10036;47.812;9.274;2022-10-17T11:06:35;18.20;99.90
19755;DHT22;10036;47.812;9.274;2022-10-17T11:09:17;18.20;99.90
19755;DHT22;10036;47.812;9.274;2022-10-17T11:11:53;18.30;99.90
19755;DHT22;10036;47.812;9.274;2022-10-17T11:14:36;18.30;99.90
19755;DHT22;10036;47.812;9.274;2022-10-17T11:17:11;18.30;99.90
19755;DHT22;10036;47.812;9.274;2022-10-17T11:19:46;18.40;99.90
19755;DHT22;10036;47.812;9.274;2022-10-17T11:22:23;18.50;99.90
19755;DHT22;10036;47.812;9.274;2022-10-17T11:24:55;18.50;99.90
19755;DHT22;10036;47.812;9.274;2022-10-17T11:27:24;18.50;99.90
19755;DHT22;10036;47.812;9.274;2022-10-17T11:29:51;18.50;99.90
19755;DHT22;10036;47.812;9.274;2022-10-17T11:32:21;18.50;99.90
19755;DHT22;10036;47.812;9.274;2022-10-17T11:34:57;18.60;99.90
19755;DHT22;10036;47.812;9.274;2022-10-17T11:37:28;18.70;99.90
19755;DHT22;10036;47.812;9.274;2022-10-17T11:39:59;18.70;99.90
19755;DHT22;10036;47.812;9.274;2022-10-17T11:42:30;18.70;99.90
19755;DHT22;10036;47.812;9.274;2022-10-17T11:45:02;18.80;99.90
19755;DHT22;10036;47.812;9.274;2022-10-17T11:47:41;18.90;99.90
19755;DHT22;10036;47.812;9.274;2022-10-17T11:50:19;18.90;99.90
19755;DHT22;10036;47.812;9.274;2022-10-17T11:52:51;19.00;99.90
19755;DHT22;10036;47.812;9.274;2022-10-17T11:55:21;19.00;99.90
19755;DHT22;10036;47.812;9.274;2022-10-17T11:58:11;19.00;99.90
19755;DHT22;10036;47.812;9.274;2022-10-17T12:00:51;19.00;99.90
19755;DHT22;10036;47.812;9.274;2022-10-17T12:03:28;19.10;99.90
19755;DHT22;10036;47.812;9.274;2022-10-17T12:06:03;19.10;99.90
19755;DHT22;10036;47.812;9.274;2022-10-17T12:08:38;19.20;99.90
19755;DHT22;10036;47.812;9.274;2022-10-17T12:11:26;19.30;99.90
19755;DHT22;10036;47.812;9.274;2022-10-17T12:13:55;19.40;99.90
19755;DHT22;10036;47.812;9.274;2022-10-17T12:16:49;19.50;99.90
19755;DHT22;10036;47.812;9.274;2022-10-17T12:19:22;19.50;99.90
19755;DHT22;10036;47.812;9.274;2022-10-17T12:21:56;19.60;99.90
19755;DHT22;10036;47.812;9.274;2022-10-17T12:24:38;19.60;99.90
19755;DHT22;10036;47.812;9.274;2022-10-17T12:27:31;19.60;99.90
19755;DHT22;10036;47.812;9.274;2022-10-17T12:29:59;19.70;99.90
19755;DHT22;10036;47.812;9.274;2022-10-17T12:32:27;19.70;99.90
19755;DHT22;10036;47.812;9.274;2022-10-17T12:34:55;19.70;99.90
19755;DHT22;10036;47.812;9.274;2022-10-17T12:38:01;19.70;99.90
19755;DHT22;10036;47.812;9.274;2022-10-17T12:40:58;19.80;99.90
19755;DHT22;10036;47.812;9.274;2022-10-17T12:43:42;19.90;99.90
19755;DHT22;10036;47.812;9.274;2022-10-17T12:46:09;19.90;99.90
19755;DHT22;10036;47.812;9.274;2022-10-17T12:49:00;19.90;99.90
19755;DHT22;10036;47.812;9.274;2022-10-17T12:51:27;20.00;99.90
19755;DHT22;10036;47.812;9.274;2022-10-17T12:53:59;20.10;99.90
19755;DHT22;10036;47.812;9.274;2022-10-17T12:56:34;20.10;99.90
19755;DHT22;10036;47.812;9.274;2022-10-17T12:59:07;20.10;99.90
19755;DHT22;10036;47.812;9.274;2022-10-17T13:01:37;20.10;99.90
19755;DHT22;10036;47.812;9.274;2022-10-17T13:04:08;20.10;99.90
19755;DHT22;10036;47.812;9.274;2022-10-17T13:06:39;20.10;99.90
19755;DHT22;10036;47.812;9.274;2022-10-17T13:09:20;20.10;99.90
19755;DHT22;10036;47.812;9.274;2022-10-17T13:11:50;20.20;99.90
19755;DHT22;10036;47.812;9.274;2022-10-17T13:14:20;20.30;99.90
19755;DHT22;10036;47.812;9.274;2022-10-17T13:16:52;20.30;99.90
19755;DHT22;10036;47.812;9.274;2022-10-17T13:19:20;20.40;99.90
19755;DHT22;10036;47.812;9.274;2022-10-17T13:21:51;20.40;99.90
19755;DHT22;10036;47.812;9.274;2022-10-17T13:24:26;20.40;99.90
19755;DHT22;10036;47.812;9.274;2022-10-17T13:26:54;20.50;99.90
19755;DHT22;10036;47.812;9.274;2022-10-17T13:29:21;20.50;99.90
19755;DHT22;10036;47.812;9.274;2022-10-17T13:31:51;20.60;99.90
19755;DHT22;10036;47.812;9.274;2022-10-17T13:34:22;20.70;99.90
19755;DHT22;10036;47.812;9.274;2022-10-17T13:36:51;20.80;99.90
19755;DHT22;10036;47.812;9.274;2022-10-17T13:39:22;20.90;99.90
19755;DHT22;10036;47.812;9.274;2022-10-17T13:41:50;20.90;99.90
19755;DHT22;10036;47.812;9.274;2022-10-17T13:44:20;21.00;99.90
19755;DHT22;10036;47.812;9.274;2022-10-17T13:46:48;21.00;99.90
19755;DHT22;10036;47.812;9.274;2022-10-17T13:49:20;21.10;99.90
19755;DHT22;10036;47.812;9.274;2022-10-17T13:51:49;21.20;99.90
19755;DHT22;10036;47.812;9.274;2022-10-17T13:54:18;21.30;99.90
19755;DHT22;10036;47.812;9.274;2022-10-17T13:56:56;21.40;99.90
19755;DHT22;10036;47.812;9.274;2022-10-17T13:59:24;21.50;99.90
19755;DHT22;10036;47.812;9.274;2022-10-17T14:01:53;21.70;99.90
19755;DHT22;10036;47.812;9.274;2022-10-17T14:04:20;21.80;99.90
19755;DHT22;10036;47.812;9.274;2022-10-17T14:06:47;21.90;99.90
19755;DHT22;10036;47.812;9.274;2022-10-17T14:09:19;21.90;99.90
19755;DHT22;10036;47.812;9.274;2022-10-17T14:11:58;21.90;99.90
19755;DHT22;10036;47.812;9.274;2022-10-17T14:14:26;22.00;99.90
19755;DHT22;10036;47.812;9.274;2022-10-17T14:16:53;22.10;99.90
19755;DHT22;10036;47.812;9.274;2022-10-17T14:19:24;22.10;99.90
19755;DHT22;10036;47.812;9.274;2022-10-17T14:21:53;22.20;99.90
19755;DHT22;10036;47.812;9.274;2022-10-17T14:24:27;22.20;99.90
19755;DHT22;10036;47.812;9.274;2022-10-17T14:26:56;22.20;99.90
19755;DHT22;10036;47.812;9.274;2022-10-17T14:29:27;22.40;99.90
19755;DHT22;10036;47.812;9.274;2022-10-17T14:31:59;22.30;99.90
19755;DHT22;10036;47.812;9.274;2022-10-17T14:34:30;22.50;99.90
19755;DHT22;10036;47.812;9.274;2022-10-17T14:36:58;22.50;99.90
19755;DHT22;10036;47.812;9.274;2022-10-17T14:39:26;22.50;99.90
19755;DHT22;10036;47.812;9.274;2022-10-17T14:41:53;22.50;99.90
19755;DHT22;10036;47.812;9.274;2022-10-17T14:44:28;22.40;99.90
19755;DHT22;10036;47.812;9.274;2022-10-17T14:46:59;22.30;99.90
19755;DHT22;10036;47.812;9.274;2022-10-17T14:49:34;22.30;99.90
19755;DHT22;10036;47.812;9.274;2022-10-17T14:52:25;22.20;99.90
19755;DHT22;10036;47.812;9.274;2022-10-17T14:54:52;22.20;99.90
19755;DHT22;10036;47.812;9.274;2022-10-17T14:57:22;22.30;99.90
19755;DHT22;10036;47.812;9.274;2022-10-17T14:59:51;22.20;99.90
19755;DHT22;10036;47.812;9.274;2022-10-17T15:02:19;22.30;99.90
19755;DHT22;10036;47.812;9.274;2022-10-17T15:04:46;22.20;99.90
19755;DHT22;10036;47.812;9.274;2022-10-17T15:07:13;22.10;99.90
19755;DHT22;10036;47.812;9.274;2022-10-17T15:09:41;22.10;99.90
19755;DHT22;10036;47.812;9.274;2022-10-17T15:12:13;22.20;99.90
19755;DHT22;10036;47.812;9.274;2022-10-17T15:14:40;22.10;99.90
19755;DHT22;10036;47.812;9.274;2022-10-17T15:17:12;22.00;99.90
19755;DHT22;10036;47.812;9.274;2022-10-17T15:19:40;22.00;99.90
19755;DHT22;10036;47.812;9.274;2022-10-17T15:22:07;22.00;99.90
19755;DHT22;10036;47.812;9.274;2022-10-17T15:24:33;21.90;99.90
19755;DHT22;10036;47.812;9.274;2022-10-17T15:27:00;21.80;99.90
19755;DHT22;10036;47.812;9.274;2022-10-17T15:29:27;21.80;99.90
19755;DHT22;10036;47.812;9.274;2022-10-17T15:31:54;21.70;99.90
19755;DHT22;10036;47.812;9.274;2022-10-17T15:34:22;21.60;99.90
19755;DHT22;10036;47.812;9.274;2022-10-17T15:36:50;21.50;99.90
19755;DHT22;10036;47.812;9.274;2022-10-17T15:39:18;21.40;99.90
19755;DHT22;10036;47.812;9.274;2022-10-17T15:41:45;21.30;99.90
19755;DHT22;10036;47.812;9.274;2022-10-17T15:44:13;21.30;99.90
19755;DHT22;10036;47.812;9.274;2022-10-17T15:46:41;21.30;99.90
19755;DHT22;10036;47.812;9.274;2022-10-17T15:49:10;21.20;99.90
19755;DHT22;10036;47.812;9.274;2022-10-17T15:51:38;21.00;99.90
19755;DHT22;10036;47.812;9.274;2022-10-17T15:54:05;20.90;99.90
19755;DHT22;10036;47.812;9.274;2022-10-17T15:56:35;20.80;99.90
19755;DHT22;10036;47.812;9.274;2022-10-17T15:59:03;20.70;99.90
19755;DHT22;10036;47.812;9.274;2022-10-17T16:01:31;20.70;99.90